Cedar Rapids (CID/KCID)

Map

Destinations

Information

Location
Cedar Rapids, IA
Local Time
08:15 / 8:15 am
GMT Time
14:15 / 2:15 pm
Gates
Unassigned
No FAA reported delays
METAR KCID 221352Z 33008KT 1/2SM FG VV002 01/01 A2962 RMK AO2 SLP038 T00060006
TAF KCID 221409Z 2214/2312 33007KT 3SM BR OVC007 TEMPO 2214/2216 30005KT 1/2SM FZFG VV002 FM222000 34011KT P6SM OVC015 FM230200 33007KT 2SM BR BKN009
  • No charts available